Pagina principale
METAR-TAF:

METAR-TAF

Aeroporti :

Châteaudun, Francia

latitudine: 48-03N, longitudine: 001-23E, altezza: 134 m

Osservazione

Il bollettino è stato emesso 41 minuti fa, alle 06:30 UTC
Vento 10 kt da nord-est
Temperature 23°C
Umidità 83%
Pressione 1021 hPa
Visibilità: 8000 m

METAR: LFOC 270630Z AUTO 05010KT 8000 NSC 23/20 Q1021 NOSIG

Ora: 09:11 (07:11 UTC)

Previsione

Il bollettino è stato emesso 2 ore e 58 minuti fa, alle 04:13 UTC
Previsione valida dal 27 alle 04 UTC al 28 alle 03 UTC
Vento 11 kt da nord/nord-est
Visibilità: 3500 m
foschia
Evoluzione graduale
dal 27 alle 05 UTC al 27 alle 07 UTC
Visibilità 10 km o più

TAF: LFOC 270413Z 2704/2803 03011KT 3500 BR NSC BECMG 2705/2707 9999 NSW

Osservazioni e previsioni meteorologiche di più di 4000 aeroporti (messaggi METAR e TAF).

Le stazioni disponibili sono rappresentate dai dischi gialli e rossi sulla carta.

Puntare il mouse per vedere il nome della stazione.

Clicca sopra per visualizzare le osservazioni e previsioni meteorologiche.

Per cambiare la mappa : fare clic sui pulsanti verdi con una croce nera per ingrandire, il pulsante verde con un trattino per diminuire, o sulla freccia verde per le mappe adiacenti.


METAR-TAF: